createdAt,value
2023-03-12T00:01:57.053Z,72.41
2023-03-12T00:05:10.141Z,72.42
2023-03-12T00:08:22.506Z,72.27
2023-03-12T00:11:35.251Z,72.57
2023-03-12T00:14:47.612Z,72.86
2023-03-12T00:18:00.246Z,73.01
2023-03-12T00:21:12.604Z,73.03
2023-03-12T00:24:25.188Z,73.32
2023-03-12T00:27:37.506Z,73.12
2023-03-12T00:30:52.177Z,73.13
2023-03-12T00:34:04.962Z,73.41
2023-03-12T00:37:17.548Z,72.96
2023-03-12T00:40:29.905Z,73.37
2023-03-12T00:43:42.491Z,74.19
2023-03-12T00:46:54.841Z,74.50
2023-03-12T00:50:08.051Z,74.41
2023-03-12T00:53:20.395Z,74.46
2023-03-12T00:56:33.094Z,74.21
2023-03-12T00:59:45.753Z,74.09
2023-03-12T01:02:58.392Z,73.52
2023-03-12T01:06:10.701Z,73.53
2023-03-12T01:09:23.763Z,72.95
2023-03-12T01:12:37.195Z,72.82
2023-03-12T01:15:49.880Z,72.59
2023-03-12T01:19:03.075Z,72.58
2023-03-12T01:22:15.693Z,71.63
2023-03-12T01:25:28.127Z,71.54
2023-03-12T01:28:40.709Z,71.63
2023-03-12T01:31:53.201Z,71.69
2023-03-12T01:35:06.458Z,71.47
2023-03-12T01:38:20.906Z,71.82
2023-03-12T01:41:33.799Z,72.04
2023-03-12T01:44:49.827Z,71.64
2023-03-12T01:48:02.471Z,71.93
2023-03-12T01:51:15.448Z,72.04
2023-03-12T01:54:55.743Z,71.97
2023-03-12T01:58:08.220Z,72.28
2023-03-12T02:01:21.194Z,71.88
2023-03-12T02:04:34.153Z,71.65
2023-03-12T02:07:46.990Z,71.59
2023-03-12T02:10:59.562Z,71.65
2023-03-12T02:14:11.949Z,71.31
2023-03-12T02:17:24.824Z,71.77
2023-03-12T02:20:45.905Z,71.20
2023-03-12T02:24:26.697Z,70.54
2023-03-12T02:27:39.060Z,70.46
2023-03-12T02:30:52.648Z,69.93
2023-03-12T02:34:05.525Z,70.38
2023-03-12T02:37:19.392Z,69.91
2023-03-12T02:40:40.555Z,70.38
2023-03-12T02:44:14.564Z,70.44
2023-03-12T02:47:27.460Z,70.53
2023-03-12T02:50:40.148Z,70.34
2023-03-12T02:53:54.992Z,70.63
2023-03-12T02:57:07.890Z,70.79
2023-03-12T03:00:20.779Z,71.09
2023-03-12T03:03:33.671Z,71.31
2023-03-12T03:06:47.717Z,71.62
2023-03-12T03:10:04.519Z,71.85
2023-03-12T03:13:17.743Z,72.60
2023-03-12T03:16:30.417Z,72.88
2023-03-12T03:19:43.319Z,73.14
2023-03-12T03:22:55.980Z,74.41
2023-03-12T03:26:08.433Z,74.96
2023-03-12T03:29:21.149Z,74.43
2023-03-12T03:32:33.786Z,74.39
2023-03-12T03:35:48.236Z,75.20
2023-03-12T03:39:00.948Z,75.59
2023-03-12T03:42:15.491Z,75.58
2023-03-12T03:45:28.304Z,76.03
2023-03-12T03:48:41.041Z,75.12
2023-03-12T03:51:53.633Z,75.28
2023-03-12T03:55:07.195Z,75.45
2023-03-12T03:58:19.626Z,75.76
2023-03-12T04:01:32.407Z,75.23
2023-03-12T04:04:45.620Z,75.46
2023-03-12T04:08:03.065Z,76.04
2023-03-12T04:11:17.887Z,76.09
2023-03-12T04:14:30.896Z,75.95
2023-03-12T04:17:43.603Z,77.03
2023-03-12T04:20:56.167Z,77.83
2023-03-12T04:24:09.145Z,79.70
2023-03-12T04:27:21.518Z,80.62
2023-03-12T04:30:34.334Z,81.07
2023-03-12T04:33:46.828Z,81.36
2023-03-12T04:37:01.943Z,81.94
2023-03-12T04:40:15.582Z,81.44
2023-03-12T04:43:28.665Z,82.05
2023-03-12T04:46:42.412Z,81.90
2023-03-12T04:49:55.594Z,81.67
2023-03-12T04:53:08.472Z,81.99
2023-03-12T04:56:21.261Z,82.25
2023-03-12T04:59:33.654Z,82.60
2023-03-12T05:02:46.522Z,82.91
2023-03-12T05:05:59.261Z,82.99
2023-03-12T05:09:12.172Z,83.84
2023-03-12T05:12:24.827Z,84.19
2023-03-12T05:15:38.102Z,84.13
2023-03-12T05:18:50.528Z,84.21
2023-03-12T05:22:03.676Z,84.51
2023-03-12T05:25:16.762Z,84.66
2023-03-12T05:28:29.614Z,84.86
2023-03-12T05:31:42.460Z,85.32
2023-03-12T05:34:55.400Z,85.19
2023-03-12T05:38:07.956Z,85.63
2023-03-12T05:41:25.345Z,85.59
2023-03-12T05:44:38.250Z,86.23
2023-03-12T05:47:51.135Z,85.61
2023-03-12T05:51:03.749Z,85.62
2023-03-12T05:54:18.010Z,85.75
2023-03-12T05:57:32.512Z,85.47
2023-03-12T06:00:45.710Z,85.60
2023-03-12T06:03:58.779Z,85.33
2023-03-12T06:07:11.283Z,85.55
2023-03-12T06:10:24.936Z,85.31
2023-03-12T06:13:37.309Z,85.94
2023-03-12T06:16:49.960Z,86.42
2023-03-12T06:20:02.347Z,86.51
2023-03-12T06:23:15.288Z,86.93
2023-03-12T06:26:28.218Z,86.74
2023-03-12T06:29:41.029Z,86.81
2023-03-12T06:32:53.664Z,86.68
2023-03-12T06:36:07.082Z,87.18
2023-03-12T06:39:19.442Z,87.20
2023-03-12T06:42:32.378Z,86.68
2023-03-12T06:45:44.717Z,86.50
2023-03-12T06:48:57.383Z,86.75
2023-03-12T06:52:09.808Z,86.26
2023-03-12T06:55:22.442Z,85.13
2023-03-12T06:58:34.771Z,85.03
2023-03-12T07:01:48.353Z,84.21
2023-03-12T07:05:00.806Z,83.88
2023-03-12T07:08:13.628Z,83.32
2023-03-12T07:11:26.001Z,82.14
2023-03-12T07:14:38.680Z,81.88
2023-03-12T07:17:51.021Z,80.93
2023-03-12T07:21:03.973Z,80.79
2023-03-12T07:24:16.307Z,79.96
2023-03-12T07:27:28.959Z,79.39
2023-03-12T07:30:41.532Z,78.87
2023-03-12T07:33:54.264Z,78.58
2023-03-12T07:37:06.688Z,78.80
2023-03-12T07:40:19.429Z,78.23
2023-03-12T07:43:31.827Z,76.54
2023-03-12T07:46:44.862Z,76.92
2023-03-12T07:49:57.235Z,76.25
2023-03-12T07:53:09.912Z,75.40
2023-03-12T07:56:22.402Z,73.16
2023-03-12T07:59:35.097Z,73.35
2023-03-12T08:02:47.926Z,72.99
2023-03-12T08:06:02.501Z,72.24
2023-03-12T08:09:14.889Z,71.09
2023-03-12T08:12:28.212Z,70.02
2023-03-12T08:15:40.560Z,68.86
2023-03-12T08:18:53.219Z,67.22
2023-03-12T08:22:06.496Z,66.22
2023-03-12T08:25:21.151Z,67.70
2023-03-12T08:28:33.521Z,64.79
2023-03-12T08:32:03.398Z,64.39
2023-03-12T08:35:16.799Z,64.23
2023-03-12T08:38:29.483Z,62.94
2023-03-12T08:41:41.857Z,64.52
2023-03-12T08:44:54.540Z,63.75
2023-03-12T08:48:07.167Z,62.96
2023-03-12T08:51:19.894Z,62.71
2023-03-12T08:54:32.219Z,62.05
2023-03-12T08:57:44.904Z,60.96
2023-03-12T09:00:58.240Z,61.44
2023-03-12T09:04:10.989Z,61.63
2023-03-12T09:07:23.525Z,60.67
2023-03-12T09:10:36.219Z,58.95
2023-03-12T09:14:18.687Z,58.63
2023-03-12T09:17:21.129Z,58.53
2023-03-12T09:20:33.425Z,57.45
2023-03-12T09:23:46.039Z,56.45
2023-03-12T09:26:58.335Z,56.56
2023-03-12T09:30:15.920Z,56.71
2023-03-12T09:33:28.107Z,55.22
2023-03-12T09:36:40.639Z,55.24
2023-03-12T09:39:53.097Z,55.16
2023-03-12T09:43:21.681Z,54.92
2023-03-12T09:46:47.576Z,53.85
2023-03-12T09:50:08.270Z,54.53
2023-03-12T09:53:41.161Z,52.96
2023-03-12T09:56:53.931Z,52.12
2023-03-12T10:00:08.494Z,53.01
2023-03-12T10:03:43.762Z,52.97
2023-03-12T10:07:27.568Z,51.44
2023-03-12T10:11:08.610Z,52.54
2023-03-12T10:14:52.673Z,51.81
2023-03-12T10:18:13.940Z,50.73
2023-03-12T10:21:30.599Z,49.70
2023-03-12T10:24:46.325Z,51.15
2023-03-12T10:28:01.217Z,50.55
2023-03-12T10:31:27.159Z,49.48
2023-03-12T10:34:47.755Z,47.24
2023-03-12T10:38:01.270Z,46.69
2023-03-12T10:41:25.412Z,46.04
2023-03-12T10:44:37.772Z,49.35
2023-03-12T10:47:57.340Z,49.87
2023-03-12T10:51:11.012Z,50.42
2023-03-12T10:54:44.748Z,50.04
2023-03-12T10:57:57.105Z,47.58
2023-03-12T11:01:15.578Z,46.51
2023-03-12T11:04:30.506Z,47.97
2023-03-12T11:07:45.126Z,46.92
2023-03-12T11:10:58.865Z,46.51
2023-03-12T11:14:13.150Z,46.40
2023-03-12T11:17:27.596Z,47.17
2023-03-12T11:20:40.401Z,46.49
2023-03-12T11:23:59.212Z,46.88
2023-03-12T11:27:17.707Z,45.29
2023-03-12T11:30:34.983Z,42.24
2023-03-12T11:33:47.705Z,42.20
2023-03-12T11:37:36.576Z,40.41
2023-03-12T11:41:19.170Z,40.25
2023-03-12T11:45:00.723Z,41.13
2023-03-12T11:48:25.927Z,40.78
2023-03-12T11:51:47.413Z,40.59
2023-03-12T11:55:16.529Z,37.58
2023-03-12T11:59:01.512Z,35.78
2023-03-12T12:02:23.304Z,34.62
2023-03-12T12:06:14.193Z,33.92
2023-03-12T12:09:55.875Z,32.75
2023-03-12T12:13:15.318Z,32.88
2023-03-12T12:16:32.258Z,33.95
2023-03-12T12:19:49.339Z,31.44
2023-03-12T12:23:16.035Z,31.36
2023-03-12T12:26:50.093Z,32.78
2023-03-12T12:30:14.620Z,33.88
2023-03-12T12:33:27.606Z,34.37
2023-03-12T12:36:39.950Z,33.81
2023-03-12T12:40:05.203Z,35.13
2023-03-12T12:43:35.423Z,34.70
2023-03-12T12:46:50.604Z,34.65
2023-03-12T12:50:02.976Z,35.09
2023-03-12T12:53:43.595Z,35.44
2023-03-12T12:57:18.325Z,34.28
2023-03-12T13:00:58.409Z,34.27
2023-03-12T13:04:31.520Z,34.38
2023-03-12T13:07:44.133Z,34.92
2023-03-12T13:11:06.240Z,35.38
2023-03-12T13:14:36.704Z,34.42
2023-03-12T13:17:51.826Z,33.50
2023-03-12T13:21:15.396Z,33.26
2023-03-12T13:24:33.665Z,32.16
2023-03-12T13:27:46.281Z,33.25
2023-03-12T13:30:59.895Z,31.44
2023-03-12T13:34:15.647Z,30.68
2023-03-12T13:37:47.119Z,31.02
2023-03-12T13:41:03.145Z,30.85
2023-03-12T13:44:27.382Z,29.92
2023-03-12T13:47:42.252Z,30.59
2023-03-12T13:51:11.841Z,28.24
2023-03-12T13:54:27.732Z,28.08
2023-03-12T13:57:41.166Z,27.01
2023-03-12T14:01:04.820Z,26.91
2023-03-12T14:04:41.074Z,25.03
2023-03-12T14:08:18.180Z,23.96
2023-03-12T14:12:19.065Z,23.82
2023-03-12T14:15:57.587Z,24.23
2023-03-12T14:19:12.472Z,23.24
2023-03-12T14:22:24.908Z,22.94
2023-03-12T14:25:44.167Z,23.23
2023-03-12T14:29:09.746Z,23.09
2023-03-12T14:32:31.229Z,23.14
2023-03-12T14:36:04.508Z,23.37
2023-03-12T14:39:35.125Z,23.33
2023-03-12T14:42:47.962Z,22.79
2023-03-12T14:46:02.457Z,22.25
2023-03-12T14:49:20.271Z,22.58
2023-03-12T14:52:34.309Z,22.32
2023-03-12T14:55:46.680Z,22.08
2023-03-12T14:59:00.304Z,22.47
2023-03-12T15:02:14.556Z,21.88
2023-03-12T15:05:27.175Z,21.33
2023-03-12T15:08:39.553Z,22.59
2023-03-12T15:12:02.946Z,23.14
2023-03-12T15:15:28.156Z,22.97
2023-03-12T15:18:40.774Z,23.54
2023-03-12T15:21:53.083Z,22.41
2023-03-12T15:25:25.091Z,23.66
2023-03-12T15:28:37.563Z,24.60
2023-03-12T15:31:50.554Z,24.02
2023-03-12T15:35:12.363Z,24.38
2023-03-12T15:38:25.101Z,24.48
2023-03-12T15:41:50.415Z,25.08
2023-03-12T15:45:03.393Z,26.40
2023-03-12T15:48:22.804Z,25.05
2023-03-12T15:51:36.624Z,25.27
2023-03-12T15:55:13.878Z,25.86
2023-03-12T15:58:28.583Z,26.60
2023-03-12T16:01:58.962Z,26.27
2023-03-12T16:05:11.584Z,26.97
2023-03-12T16:08:30.496Z,27.06
2023-03-12T16:11:43.188Z,28.05
2023-03-12T16:14:55.990Z,27.80
2023-03-12T16:18:18.670Z,28.30
2023-03-12T16:21:31.000Z,28.50
2023-03-12T16:24:43.714Z,29.00
2023-03-12T16:27:58.128Z,29.21
2023-03-12T16:31:12.590Z,29.32
2023-03-12T16:34:24.971Z,29.37
2023-03-12T16:37:37.583Z,29.98
2023-03-12T16:40:50.390Z,30.13
2023-03-12T16:44:03.043Z,30.34
2023-03-12T16:47:15.476Z,30.85
2023-03-12T16:50:28.277Z,31.36
2023-03-12T16:53:40.652Z,31.78
2023-03-12T16:56:53.237Z,32.41
2023-03-12T17:00:08.530Z,32.60
2023-03-12T17:03:25.506Z,33.45
2023-03-12T17:06:40.056Z,33.49
2023-03-12T17:09:52.713Z,33.48
2023-03-12T17:13:05.054Z,34.03
2023-03-12T17:16:17.741Z,34.18
2023-03-12T17:19:30.143Z,34.35
2023-03-12T17:22:43.030Z,34.39
2023-03-12T17:25:55.636Z,35.02
2023-03-12T17:29:08.304Z,34.99
2023-03-12T17:32:20.713Z,35.29
2023-03-12T17:35:33.471Z,36.74
2023-03-12T17:38:45.860Z,35.81
2023-03-12T17:41:58.519Z,35.93
2023-03-12T17:45:10.959Z,35.86
2023-03-12T17:48:23.605Z,35.74
2023-03-12T17:51:35.968Z,35.73
2023-03-12T17:54:48.631Z,35.48
2023-03-12T17:58:03.219Z,35.28
2023-03-12T18:01:15.986Z,36.03
2023-03-12T18:04:28.651Z,36.06
2023-03-12T18:07:41.115Z,35.98
2023-03-12T18:10:53.697Z,36.47
2023-03-12T18:14:06.049Z,37.19
2023-03-12T18:17:18.729Z,36.67
2023-03-12T18:20:38.562Z,36.98
2023-03-12T18:23:53.278Z,36.95
2023-03-12T18:27:05.619Z,37.14
2023-03-12T18:30:20.469Z,37.36
2023-03-12T18:33:32.879Z,37.67
2023-03-12T18:36:45.540Z,38.15
2023-03-12T18:39:57.907Z,38.19
2023-03-12T18:43:10.544Z,38.38
2023-03-12T18:46:24.517Z,39.68
2023-03-12T18:49:39.510Z,39.69
2023-03-12T18:52:51.857Z,38.88
2023-03-12T18:56:04.768Z,40.86
2023-03-12T18:59:17.179Z,42.34
2023-03-12T19:02:29.897Z,43.34
2023-03-12T19:05:42.271Z,44.58
2023-03-12T19:08:55.012Z,44.80
2023-03-12T19:12:07.462Z,46.85
2023-03-12T19:15:21.102Z,46.52
2023-03-12T19:18:33.472Z,46.54
2023-03-12T19:21:46.066Z,46.67
2023-03-12T19:24:58.922Z,47.02
2023-03-12T19:28:11.528Z,46.67
2023-03-12T19:31:23.989Z,47.65
2023-03-12T19:34:36.684Z,46.90
2023-03-12T19:37:49.042Z,46.74
2023-03-12T19:41:01.711Z,46.59
2023-03-12T19:44:14.088Z,46.50
2023-03-12T19:47:26.842Z,46.34
2023-03-12T19:50:39.147Z,48.92
2023-03-12T19:53:51.789Z,50.00
2023-03-12T19:57:04.160Z,52.78
2023-03-12T20:00:18.403Z,52.39
2023-03-12T20:03:32.770Z,52.27
2023-03-12T20:06:45.308Z,52.04
2023-03-12T20:09:57.953Z,51.53
2023-03-12T20:13:13.016Z,51.65
2023-03-12T20:16:25.754Z,51.15
2023-03-12T20:19:38.946Z,51.39
2023-03-12T20:22:51.627Z,52.24
2023-03-12T20:26:04.053Z,52.35
2023-03-12T20:29:16.673Z,52.32
2023-03-12T20:32:29.081Z,52.27
2023-03-12T20:35:41.823Z,52.38
2023-03-12T20:38:54.186Z,51.94
2023-03-12T20:42:06.791Z,52.27
2023-03-12T20:45:19.128Z,52.68
2023-03-12T20:48:31.790Z,52.89
2023-03-12T20:51:44.750Z,55.55
2023-03-12T20:54:57.344Z,56.67
2023-03-12T20:58:09.695Z,56.88
2023-03-12T21:01:22.363Z,51.94
2023-03-12T21:04:34.710Z,47.50
2023-03-12T21:07:47.343Z,46.32
2023-03-12T21:10:59.758Z,45.80
2023-03-12T21:14:12.385Z,45.76
2023-03-12T21:17:24.770Z,45.62
2023-03-12T21:20:41.585Z,45.56
2023-03-12T21:23:54.030Z,45.60
2023-03-12T21:27:06.653Z,45.46
2023-03-12T21:30:19.258Z,45.33
2023-03-12T21:33:31.921Z,45.40
2023-03-12T21:36:44.271Z,45.72
2023-03-12T21:40:01.192Z,45.53
2023-03-12T21:43:13.522Z,45.77
2023-03-12T21:46:27.909Z,45.73
2023-03-12T21:49:40.311Z,46.03
2023-03-12T21:52:52.939Z,46.33
2023-03-12T21:56:06.223Z,46.50
2023-03-12T21:59:18.968Z,46.61
2023-03-12T22:02:31.733Z,46.83
2023-03-12T22:05:50.550Z,46.83
2023-03-12T22:09:02.909Z,46.97
2023-03-12T22:12:15.608Z,46.98
2023-03-12T22:15:28.352Z,47.32
2023-03-12T22:18:45.003Z,47.45
2023-03-12T22:21:57.353Z,47.64
2023-03-12T22:25:09.955Z,48.07
2023-03-12T22:28:25.657Z,48.39
2023-03-12T22:31:38.643Z,48.83
2023-03-12T22:34:51.093Z,49.18
2023-03-12T22:38:03.716Z,49.34
2023-03-12T22:41:19.768Z,49.80
2023-03-12T22:44:32.396Z,50.16
2023-03-12T22:47:44.821Z,50.47
2023-03-12T22:50:57.432Z,51.04
2023-03-12T22:54:09.763Z,51.24
2023-03-12T22:57:22.410Z,51.84
2023-03-12T23:00:34.758Z,52.01
2023-03-12T23:03:47.511Z,52.34
2023-03-12T23:07:13.397Z,52.87
2023-03-12T23:10:26.716Z,52.70
2023-03-12T23:13:40.307Z,52.90
2023-03-12T23:16:52.917Z,52.89
2023-03-12T23:20:05.903Z,53.39
2023-03-12T23:23:18.570Z,53.40
2023-03-12T23:26:30.940Z,53.33
2023-03-12T23:29:43.621Z,52.69
2023-03-12T23:32:56.018Z,52.79
2023-03-12T23:36:13.406Z,53.38
2023-03-12T23:39:25.838Z,53.08
2023-03-12T23:42:38.487Z,52.88
2023-03-12T23:45:58.420Z,52.80
2023-03-12T23:49:12.120Z,52.42
2023-03-12T23:52:26.843Z,52.82
2023-03-12T23:55:39.463Z,52.99
2023-03-12T23:58:51.937Z,53.17
